createdAt,value
2023-04-10T00:00:23.685Z,4.60
2023-04-10T00:02:42.787Z,4.57
2023-04-10T00:04:58.426Z,4.50
2023-04-10T00:07:13.550Z,4.20
2023-04-10T00:09:29.080Z,3.67
2023-04-10T00:11:47.016Z,3.80
2023-04-10T00:14:07.951Z,4.30
2023-04-10T00:16:23.644Z,3.70
2023-04-10T00:18:46.592Z,3.77
2023-04-10T00:21:03.788Z,5.50
2023-04-10T00:23:15.380Z,4.93
2023-04-10T00:25:32.978Z,4.13
2023-04-10T00:27:58.277Z,4.30
2023-04-10T00:30:14.455Z,3.80
2023-04-10T00:32:31.721Z,3.97
2023-04-10T00:35:02.303Z,3.67
2023-04-10T00:37:18.173Z,4.00
2023-04-10T00:39:29.142Z,3.83
2023-04-10T00:41:49.943Z,3.80
2023-04-10T00:44:05.934Z,4.10
2023-04-10T00:46:25.744Z,4.20
2023-04-10T00:48:46.097Z,3.80
2023-04-10T00:51:01.991Z,3.67
2023-04-10T00:53:15.263Z,3.50
2023-04-10T00:55:31.444Z,4.00
2023-04-10T00:57:43.553Z,3.40
2023-04-10T00:59:56.786Z,4.27
2023-04-10T01:02:09.978Z,3.63
2023-04-10T01:04:28.098Z,3.83
2023-04-10T01:06:53.994Z,3.53
2023-04-10T01:09:18.474Z,3.50
2023-04-10T01:11:41.645Z,3.50
2023-04-10T01:14:02.454Z,3.80
2023-04-10T01:16:32.252Z,3.40
2023-04-10T01:18:50.207Z,3.73
2023-04-10T01:21:20.394Z,4.10
2023-04-10T01:23:50.906Z,3.83
2023-04-10T01:26:09.130Z,4.23
2023-04-10T01:28:37.110Z,3.80
2023-04-10T01:30:52.312Z,4.10
2023-04-10T01:33:12.588Z,4.17
2023-04-10T01:35:25.048Z,4.53
2023-04-10T01:37:46.399Z,3.73
2023-04-10T01:40:09.097Z,3.67
2023-04-10T01:42:24.013Z,3.30
2023-04-10T01:44:39.594Z,3.70
2023-04-10T01:46:57.591Z,3.67
2023-04-10T01:49:13.434Z,3.23
2023-04-10T01:51:33.981Z,3.47
2023-04-10T01:53:54.136Z,3.50
2023-04-10T01:56:12.945Z,3.13
2023-04-10T01:58:23.026Z,3.53
2023-04-10T02:00:41.115Z,3.70
2023-04-10T02:02:59.585Z,4.13
2023-04-10T02:05:13.708Z,3.73
2023-04-10T02:07:42.216Z,4.40
2023-04-10T02:10:00.222Z,4.57
2023-04-10T02:12:16.743Z,4.87
2023-04-10T02:14:40.089Z,5.97
2023-04-10T02:16:55.442Z,8.80
2023-04-10T02:19:13.926Z,8.03
2023-04-10T02:21:32.852Z,6.17
2023-04-10T02:23:52.830Z,7.53
2023-04-10T02:26:18.047Z,5.30
2023-04-10T02:28:34.148Z,4.97
2023-04-10T02:30:46.840Z,5.70
2023-04-10T02:33:05.103Z,5.57
2023-04-10T02:35:24.787Z,5.00
2023-04-10T02:37:41.209Z,5.17
2023-04-10T02:39:56.735Z,5.73
2023-04-10T02:42:20.213Z,5.37
2023-04-10T02:44:32.945Z,5.27
2023-04-10T02:46:46.396Z,4.20
2023-04-10T02:48:56.687Z,4.83
2023-04-10T02:51:27.680Z,4.60
2023-04-10T02:53:41.967Z,4.57
2023-04-10T02:55:56.668Z,4.73
2023-04-10T02:58:15.265Z,4.53
2023-04-10T03:00:34.138Z,4.67
2023-04-10T03:02:50.855Z,4.90
2023-04-10T03:05:13.478Z,4.37
2023-04-10T03:07:35.646Z,4.30
2023-04-10T03:09:49.017Z,4.30
2023-04-10T03:12:12.154Z,4.77
2023-04-10T03:14:33.019Z,4.97
2023-04-10T03:16:46.586Z,4.40
2023-04-10T03:18:56.729Z,4.13
2023-04-10T03:21:18.890Z,4.03
2023-04-10T03:23:37.372Z,3.70
2023-04-10T03:25:48.963Z,3.97
2023-04-10T03:28:08.208Z,3.70
2023-04-10T03:30:28.995Z,3.60
2023-04-10T03:32:41.548Z,4.07
2023-04-10T03:34:54.702Z,4.10
2023-04-10T03:37:10.871Z,4.27
2023-04-10T03:39:31.457Z,4.40
2023-04-10T03:41:56.981Z,3.83
2023-04-10T03:44:17.416Z,4.30
2023-04-10T03:46:42.574Z,3.50
2023-04-10T03:48:59.772Z,4.00
2023-04-10T03:51:14.658Z,4.30
2023-04-10T03:53:25.369Z,4.43
2023-04-10T03:56:03.159Z,4.13
2023-04-10T03:58:20.460Z,4.53
2023-04-10T04:00:35.916Z,4.67
2023-04-10T04:02:56.765Z,4.17
2023-04-10T04:05:14.696Z,4.03
2023-04-10T04:07:23.929Z,4.40
2023-04-10T04:09:37.287Z,3.80
2023-04-10T04:12:00.229Z,4.23
2023-04-10T04:14:16.155Z,4.20
2023-04-10T04:16:35.809Z,4.30
2023-04-10T04:18:51.683Z,3.90
2023-04-10T04:21:09.475Z,3.57
2023-04-10T04:23:24.802Z,3.70
2023-04-10T04:25:44.150Z,3.53
2023-04-10T04:28:05.976Z,3.30
2023-04-10T04:30:18.122Z,3.70
2023-04-10T04:32:29.087Z,3.77
2023-04-10T04:34:41.857Z,3.53
2023-04-10T04:36:56.138Z,3.70
2023-04-10T04:39:14.375Z,3.63
2023-04-10T04:41:32.686Z,3.80
2023-04-10T04:43:55.720Z,4.00
2023-04-10T04:46:13.520Z,3.97
2023-04-10T04:48:23.750Z,3.83
2023-04-10T04:50:35.048Z,4.50
2023-04-10T04:52:51.078Z,4.90
2023-04-10T04:55:04.776Z,5.90
2023-04-10T04:57:22.237Z,5.80
2023-04-10T04:59:35.044Z,5.17
2023-04-10T05:01:57.505Z,4.37
2023-04-10T05:04:11.920Z,4.63
2023-04-10T05:06:26.345Z,4.27
2023-04-10T05:08:42.518Z,3.83
2023-04-10T05:11:02.189Z,4.37
2023-04-10T05:13:20.331Z,4.80
2023-04-10T05:15:32.063Z,3.83
2023-04-10T05:17:54.748Z,4.27
2023-04-10T05:20:13.496Z,4.63
2023-04-10T05:22:25.326Z,4.17
2023-04-10T05:24:47.691Z,4.20
2023-04-10T05:27:02.289Z,3.90
2023-04-10T05:29:16.496Z,4.03
2023-04-10T05:31:26.842Z,3.87
2023-04-10T05:33:36.584Z,4.20
2023-04-10T05:35:45.377Z,4.00
2023-04-10T05:37:54.520Z,4.33
2023-04-10T05:40:03.686Z,4.40
2023-04-10T05:42:13.547Z,4.00
2023-04-10T05:44:22.553Z,4.07
2023-04-10T05:46:33.385Z,4.20
2023-04-10T05:48:42.338Z,4.27
2023-04-10T05:50:52.660Z,4.37
2023-04-10T05:53:01.340Z,3.80
2023-04-10T05:55:11.076Z,4.53
2023-04-10T05:57:20.530Z,4.20
2023-04-10T05:59:29.670Z,4.10
2023-04-10T06:01:40.504Z,4.20
2023-04-10T06:03:49.280Z,4.20
2023-04-10T06:05:58.400Z,4.40
2023-04-10T06:08:07.749Z,4.10
2023-04-10T06:10:16.748Z,4.27
2023-04-10T06:12:25.615Z,4.53
2023-04-10T06:14:34.805Z,4.23
2023-04-10T06:16:45.074Z,4.00
2023-04-10T06:18:54.704Z,3.80
2023-04-10T06:21:03.393Z,4.00
2023-04-10T06:23:13.825Z,4.33
2023-04-10T06:25:22.559Z,3.93
2023-04-10T06:27:31.970Z,3.90
2023-04-10T06:29:41.113Z,3.93
2023-04-10T06:31:52.447Z,4.13
2023-04-10T06:34:01.653Z,3.93
2023-04-10T06:36:10.925Z,3.90
2023-04-10T06:38:20.036Z,3.90
2023-04-10T06:40:29.669Z,3.70
2023-04-10T06:42:38.917Z,3.93
2023-04-10T06:44:47.968Z,3.73
2023-04-10T06:46:58.676Z,4.10
2023-04-10T06:49:07.692Z,4.33
2023-04-10T06:51:16.377Z,3.57
2023-04-10T06:53:25.300Z,3.77
2023-04-10T06:55:34.528Z,3.70
2023-04-10T06:57:43.595Z,3.57
2023-04-10T06:59:52.546Z,3.90
2023-04-10T07:02:02.997Z,3.50
2023-04-10T07:04:12.010Z,3.80
2023-04-10T07:06:20.917Z,3.77
2023-04-10T07:08:29.995Z,3.70
2023-04-10T07:10:38.971Z,3.70
2023-04-10T07:12:47.979Z,3.67
2023-04-10T07:14:57.115Z,2.90
2023-04-10T07:17:07.770Z,3.37
2023-04-10T07:19:16.637Z,2.83
2023-04-10T07:21:27.225Z,3.10
2023-04-10T07:23:36.188Z,2.77
2023-04-10T07:25:44.873Z,3.03
2023-04-10T07:27:53.986Z,2.70
2023-04-10T07:30:03.072Z,2.40
2023-04-10T07:32:13.366Z,2.70
2023-04-10T07:34:22.656Z,2.47
2023-04-10T07:36:32.011Z,2.43
2023-04-10T07:38:41.242Z,2.40
2023-04-10T07:40:49.942Z,2.60
2023-04-10T07:42:59.348Z,2.57
2023-04-10T07:45:08.612Z,2.10
2023-04-10T07:47:19.710Z,2.33
2023-04-10T07:49:28.414Z,2.30
2023-04-10T07:51:37.148Z,2.07
2023-04-10T07:53:45.707Z,2.20
2023-04-10T07:55:54.639Z,2.10
2023-04-10T07:58:03.631Z,2.20
2023-04-10T08:00:13.291Z,1.67
2023-04-10T08:02:24.215Z,2.60
2023-04-10T08:04:33.856Z,2.57
2023-04-10T08:06:42.965Z,2.10
2023-04-10T08:08:52.548Z,2.27
2023-04-10T08:11:01.740Z,1.90
2023-04-10T08:13:10.879Z,2.13
2023-04-10T08:15:19.980Z,1.90
2023-04-10T08:17:30.483Z,1.90
2023-04-10T08:19:39.098Z,1.63
2023-04-10T08:21:48.037Z,1.90
2023-04-10T08:23:57.413Z,2.70
2023-04-10T08:26:06.216Z,2.13
2023-04-10T08:28:15.476Z,2.50
2023-04-10T08:30:24.368Z,2.20
2023-04-10T08:32:34.336Z,2.37
2023-04-10T08:34:43.386Z,2.10
2023-04-10T08:36:52.014Z,2.43
2023-04-10T08:39:00.867Z,2.70
2023-04-10T08:41:12.168Z,1.90
2023-04-10T08:43:21.361Z,2.50
2023-04-10T08:45:30.357Z,2.17
2023-04-10T08:47:41.036Z,1.93
2023-04-10T08:49:51.101Z,1.90
2023-04-10T08:52:00.866Z,1.77
2023-04-10T08:54:10.496Z,1.70
2023-04-10T08:56:20.504Z,1.93
2023-04-10T08:58:30.494Z,1.90
2023-04-10T09:00:39.841Z,1.63
2023-04-10T09:02:51.677Z,1.77
2023-04-10T09:05:02.431Z,2.33
2023-04-10T09:07:11.852Z,1.77
2023-04-10T09:09:20.547Z,1.90
2023-04-10T09:12:01.317Z,2.97
2023-04-10T09:14:22.492Z,2.37
2023-04-10T09:16:31.543Z,1.80
2023-04-10T09:18:53.732Z,1.77
2023-04-10T09:21:08.591Z,1.80
2023-04-10T09:23:22.762Z,1.47
2023-04-10T09:25:33.326Z,1.60
2023-04-10T09:27:59.147Z,1.80
2023-04-10T09:30:20.353Z,2.00
2023-04-10T09:32:45.488Z,1.87
2023-04-10T09:35:18.136Z,1.70
2023-04-10T09:37:35.916Z,1.63
2023-04-10T09:39:45.695Z,1.47
2023-04-10T09:42:04.259Z,1.90
2023-04-10T09:44:16.337Z,1.50
2023-04-10T09:46:42.780Z,1.93
2023-04-10T09:49:05.725Z,2.13
2023-04-10T09:51:34.833Z,1.73
2023-04-10T09:53:57.105Z,2.07
2023-04-10T09:56:11.133Z,1.83
2023-04-10T09:58:23.440Z,1.97
2023-04-10T10:00:38.614Z,2.10
2023-04-10T10:02:51.334Z,1.73
2023-04-10T10:05:02.984Z,2.20
2023-04-10T10:07:28.809Z,2.33
2023-04-10T10:09:51.265Z,1.93
2023-04-10T10:12:05.317Z,1.63
2023-04-10T10:14:24.573Z,1.70
2023-04-10T10:16:50.377Z,1.83
2023-04-10T10:19:08.906Z,1.73
2023-04-10T10:21:26.214Z,1.50
2023-04-10T10:23:40.800Z,1.30
2023-04-10T10:26:02.362Z,1.37
2023-04-10T10:28:30.965Z,1.40
2023-04-10T10:30:53.736Z,1.30
2023-04-10T10:33:10.429Z,1.50
2023-04-10T10:35:23.776Z,1.40
2023-04-10T10:37:46.048Z,1.50
2023-04-10T10:40:04.581Z,1.70
2023-04-10T10:42:24.842Z,1.70
2023-04-10T10:44:45.578Z,1.13
2023-04-10T10:47:05.120Z,1.40
2023-04-10T10:49:19.690Z,1.37
2023-04-10T10:51:48.364Z,1.50
2023-04-10T10:54:03.458Z,1.50
2023-04-10T10:56:43.295Z,1.40
2023-04-10T10:58:59.219Z,1.40
2023-04-10T11:01:11.411Z,1.37
2023-04-10T11:03:41.690Z,1.10
2023-04-10T11:05:54.460Z,1.10
2023-04-10T11:08:20.365Z,1.60
2023-04-10T11:11:01.739Z,1.60
2023-04-10T11:13:40.406Z,1.80
2023-04-10T11:15:54.377Z,1.60
2023-04-10T11:18:07.221Z,1.00
2023-04-10T11:20:30.766Z,1.10
2023-04-10T11:23:06.611Z,1.10
2023-04-10T11:25:27.772Z,1.40
2023-04-10T11:27:45.569Z,1.03
2023-04-10T11:29:59.403Z,1.20
2023-04-10T11:32:11.350Z,1.57
2023-04-10T11:34:28.447Z,0.90
2023-04-10T11:36:47.683Z,1.17
2023-04-10T11:39:01.549Z,1.00
2023-04-10T11:41:17.815Z,1.10
2023-04-10T11:43:36.348Z,1.20
2023-04-10T11:45:47.575Z,1.43
2023-04-10T11:48:02.412Z,1.40
2023-04-10T11:50:15.286Z,1.20
2023-04-10T11:52:43.739Z,1.10
2023-04-10T11:54:55.765Z,1.00
2023-04-10T11:57:14.077Z,1.10
2023-04-10T11:59:34.700Z,1.10
2023-04-10T12:01:46.528Z,1.00
2023-04-10T12:04:03.144Z,1.00
2023-04-10T12:06:26.440Z,1.13
2023-04-10T12:08:45.067Z,1.20
2023-04-10T12:10:57.414Z,0.90
2023-04-10T12:13:13.152Z,1.00
2023-04-10T12:15:29.458Z,0.90
2023-04-10T12:17:49.777Z,1.20
2023-04-10T12:20:02.064Z,1.00
2023-04-10T12:22:22.882Z,1.17
2023-04-10T12:24:59.233Z,1.30
2023-04-10T12:27:09.180Z,1.63
2023-04-10T12:29:34.141Z,1.60
2023-04-10T12:31:59.719Z,1.50
2023-04-10T12:34:21.902Z,1.07
2023-04-10T12:36:41.067Z,1.40
2023-04-10T12:38:53.370Z,1.03
2023-04-10T12:41:08.153Z,1.10
2023-04-10T12:43:37.310Z,0.90
2023-04-10T12:46:03.047Z,1.20
2023-04-10T12:48:21.696Z,1.00
2023-04-10T12:50:45.089Z,1.20
2023-04-10T12:53:24.750Z,1.20
2023-04-10T12:55:41.154Z,1.20
2023-04-10T12:57:57.286Z,1.50
2023-04-10T13:00:13.990Z,1.20
2023-04-10T13:02:26.947Z,1.00
2023-04-10T13:04:38.409Z,1.00
2023-04-10T13:06:53.051Z,1.20
2023-04-10T13:09:14.381Z,1.00
2023-04-10T13:11:26.086Z,1.87
2023-04-10T13:13:42.039Z,1.50
2023-04-10T13:16:00.781Z,1.60
2023-04-10T13:18:17.967Z,1.33
2023-04-10T13:20:29.887Z,1.67
2023-04-10T13:22:51.027Z,1.33
2023-04-10T13:25:14.435Z,1.20
2023-04-10T13:27:24.356Z,1.10
2023-04-10T13:29:37.036Z,1.07
2023-04-10T13:31:56.437Z,1.27
2023-04-10T13:34:14.192Z,1.37
2023-04-10T13:36:32.487Z,1.27
2023-04-10T13:38:50.855Z,1.30
2023-04-10T13:41:10.899Z,0.97
2023-04-10T13:43:28.920Z,1.30
2023-04-10T13:45:42.977Z,1.00
2023-04-10T13:47:55.460Z,1.10
2023-04-10T13:50:05.302Z,1.30
2023-04-10T13:52:17.560Z,1.43
2023-04-10T13:54:33.898Z,1.30
2023-04-10T13:56:53.171Z,1.27
2023-04-10T13:59:12.227Z,1.13
2023-04-10T14:01:29.603Z,1.53
2023-04-10T14:03:38.423Z,1.20
2023-04-10T14:05:59.513Z,1.23
2023-04-10T14:08:18.893Z,1.00
2023-04-10T14:10:38.921Z,1.20
2023-04-10T14:12:50.837Z,1.57
2023-04-10T14:15:05.171Z,1.20
2023-04-10T14:17:14.987Z,1.40
2023-04-10T14:19:26.175Z,1.23
2023-04-10T14:21:41.702Z,1.10
2023-04-10T14:23:53.465Z,1.07
2023-04-10T14:26:08.376Z,1.07
2023-04-10T14:28:22.311Z,1.10
2023-04-10T14:30:37.163Z,1.13
2023-04-10T14:32:47.142Z,1.07
2023-04-10T14:35:09.167Z,1.40
2023-04-10T14:37:20.987Z,1.20
2023-04-10T14:39:37.777Z,1.10
2023-04-10T14:41:50.819Z,1.23
2023-04-10T14:44:02.115Z,1.50
2023-04-10T14:46:16.203Z,1.40
2023-04-10T14:48:26.842Z,1.10
2023-04-10T14:50:41.801Z,1.20
2023-04-10T14:52:58.064Z,1.37
2023-04-10T14:55:09.405Z,1.30
2023-04-10T14:57:20.873Z,1.60
2023-04-10T14:59:34.940Z,1.80
2023-04-10T15:01:46.790Z,1.50
2023-04-10T15:03:58.611Z,1.50
2023-04-10T15:06:11.703Z,1.60
2023-04-10T15:08:22.985Z,1.37
2023-04-10T15:10:39.119Z,1.40
2023-04-10T15:12:52.065Z,1.30
2023-04-10T15:15:04.217Z,1.40
2023-04-10T15:17:18.586Z,1.53
2023-04-10T15:19:36.174Z,1.30
2023-04-10T15:21:51.076Z,1.20
2023-04-10T15:24:09.333Z,1.20
2023-04-10T15:26:18.087Z,1.20
2023-04-10T15:28:32.307Z,1.40
2023-04-10T15:30:50.553Z,1.50
2023-04-10T15:33:07.272Z,1.50
2023-04-10T15:35:26.941Z,1.40
2023-04-10T15:37:46.622Z,1.60
2023-04-10T15:40:02.647Z,1.30
2023-04-10T15:42:21.382Z,1.53
2023-04-10T15:44:35.804Z,1.40
2023-04-10T15:47:04.678Z,1.37
2023-04-10T15:49:33.989Z,1.07
2023-04-10T15:51:52.172Z,1.23
2023-04-10T15:54:13.080Z,1.20
2023-04-10T15:56:26.108Z,1.00
2023-04-10T15:58:37.269Z,1.10
2023-04-10T16:00:49.037Z,1.30
2023-04-10T16:03:05.110Z,1.00
2023-04-10T16:05:27.640Z,0.90
2023-04-10T16:07:39.286Z,1.10
2023-04-10T16:09:48.336Z,0.90
2023-04-10T16:11:59.814Z,1.23
2023-04-10T16:14:20.053Z,1.20
2023-04-10T16:16:36.978Z,1.10
2023-04-10T16:18:54.712Z,1.90
2023-04-10T16:21:23.303Z,1.30
2023-04-10T16:23:43.500Z,1.30
2023-04-10T16:26:01.412Z,1.40
2023-04-10T16:28:22.617Z,1.40
2023-04-10T16:30:32.513Z,1.43
2023-04-10T16:32:43.577Z,1.50
2023-04-10T16:35:06.366Z,1.30
2023-04-10T16:37:18.447Z,1.10
2023-04-10T16:39:28.649Z,1.30
2023-04-10T16:41:46.436Z,1.40
2023-04-10T16:44:00.905Z,1.30
2023-04-10T16:46:11.519Z,1.27
2023-04-10T16:48:22.586Z,1.40
2023-04-10T16:50:44.572Z,1.50
2023-04-10T16:53:01.917Z,1.30
2023-04-10T16:55:13.191Z,1.20
2023-04-10T16:57:26.103Z,1.57
2023-04-10T16:59:40.707Z,1.40
2023-04-10T17:01:58.958Z,1.40
2023-04-10T17:04:12.042Z,1.63
2023-04-10T17:06:34.402Z,1.70
2023-04-10T17:08:46.965Z,1.80
2023-04-10T17:10:58.760Z,1.57
2023-04-10T17:13:11.184Z,2.03
2023-04-10T17:15:29.106Z,1.90
2023-04-10T17:17:41.185Z,1.50
2023-04-10T17:19:54.628Z,2.10
2023-04-10T17:22:21.961Z,1.80
2023-04-10T17:24:50.154Z,1.70
2023-04-10T17:27:10.318Z,1.97
2023-04-10T17:29:24.534Z,1.87
2023-04-10T17:31:36.957Z,1.67
2023-04-10T17:33:56.684Z,1.87
2023-04-10T17:36:06.567Z,2.03
2023-04-10T17:38:20.453Z,2.00
2023-04-10T17:40:32.352Z,1.97
2023-04-10T17:42:41.357Z,1.97
2023-04-10T17:44:54.617Z,1.93
2023-04-10T17:47:06.210Z,2.10
2023-04-10T17:49:20.574Z,2.00
2023-04-10T17:51:32.834Z,2.00
2023-04-10T17:53:55.866Z,1.90
2023-04-10T17:56:07.727Z,2.30
2023-04-10T17:58:26.357Z,2.63
2023-04-10T18:00:49.635Z,2.47
2023-04-10T18:03:05.056Z,2.60
2023-04-10T18:05:19.481Z,4.73
2023-04-10T18:07:32.550Z,4.60
2023-04-10T18:09:43.546Z,4.93
2023-04-10T18:11:57.591Z,6.37
2023-04-10T18:14:07.430Z,5.20
2023-04-10T18:16:22.604Z,4.47
2023-04-10T18:18:31.890Z,4.73
2023-04-10T18:20:43.818Z,3.80
2023-04-10T18:22:58.892Z,3.57
2023-04-10T18:25:12.418Z,3.83
2023-04-10T18:27:25.021Z,2.93
2023-04-10T18:29:35.505Z,2.80
2023-04-10T18:31:49.139Z,3.25
2023-04-10T18:34:07.839Z,2.97
2023-04-10T18:36:22.450Z,3.30
2023-04-10T18:38:35.592Z,3.57
2023-04-10T18:40:56.587Z,3.87
2023-04-10T18:43:08.147Z,3.23
2023-04-10T18:45:22.071Z,3.00
2023-04-10T18:47:40.004Z,3.00
2023-04-10T18:50:08.264Z,2.60
2023-04-10T18:52:20.262Z,2.70
2023-04-10T18:54:37.097Z,4.77
2023-04-10T18:56:51.754Z,4.43
2023-04-10T18:59:06.037Z,3.23
2023-04-10T19:01:19.511Z,3.90
2023-04-10T19:03:33.606Z,4.23
2023-04-10T19:05:49.143Z,3.73
2023-04-10T19:08:04.168Z,3.93
2023-04-10T19:10:17.513Z,3.50
2023-04-10T19:12:29.831Z,4.27
2023-04-10T19:14:39.901Z,3.90
2023-04-10T19:16:51.078Z,3.30
2023-04-10T19:19:09.929Z,2.63
2023-04-10T19:21:34.454Z,3.10
2023-04-10T19:23:46.631Z,3.00
2023-04-10T19:25:59.518Z,2.90
2023-04-10T19:28:20.366Z,2.70
2023-04-10T19:30:30.595Z,2.77
2023-04-10T19:32:42.046Z,2.53
2023-04-10T19:34:53.944Z,2.17
2023-04-10T19:37:04.778Z,2.20
2023-04-10T19:39:16.527Z,2.63
2023-04-10T19:41:32.115Z,2.70
2023-04-10T19:43:47.254Z,2.40
2023-04-10T19:46:00.133Z,2.30
2023-04-10T19:48:17.459Z,4.00
2023-04-10T19:50:28.765Z,7.50
2023-04-10T19:52:41.189Z,7.23
2023-04-10T19:54:57.889Z,5.80
2023-04-10T19:57:15.881Z,5.40
2023-04-10T19:59:29.284Z,3.93
2023-04-10T20:01:44.257Z,2.57
2023-04-10T20:03:56.360Z,3.30
2023-04-10T20:06:11.450Z,3.60
2023-04-10T20:08:26.536Z,4.03
2023-04-10T20:10:40.081Z,4.70
2023-04-10T20:12:57.130Z,4.53
2023-04-10T20:15:13.784Z,4.13
2023-04-10T20:17:23.960Z,6.50
2023-04-10T20:19:33.733Z,5.53
2023-04-10T20:21:44.189Z,5.70
2023-04-10T20:23:56.732Z,4.03
2023-04-10T20:26:16.934Z,5.80
2023-04-10T20:28:31.928Z,5.80
2023-04-10T20:30:49.734Z,3.97
2023-04-10T20:33:01.516Z,3.70
2023-04-10T20:35:14.821Z,3.57
2023-04-10T20:37:35.169Z,4.00
2023-04-10T20:39:53.923Z,4.20
2023-04-10T20:42:05.382Z,3.43
2023-04-10T20:44:19.553Z,3.10
2023-04-10T20:46:38.407Z,3.63
2023-04-10T20:48:57.769Z,3.20
2023-04-10T20:51:17.558Z,3.50
2023-04-10T20:53:31.651Z,3.30
2023-04-10T20:55:46.913Z,3.40
2023-04-10T20:57:58.581Z,3.27
2023-04-10T21:00:28.611Z,3.17
2023-04-10T21:02:51.697Z,3.57
2023-04-10T21:05:12.231Z,3.30
2023-04-10T21:07:37.239Z,3.77
2023-04-10T21:09:48.179Z,3.17
2023-04-10T21:12:06.882Z,3.83
2023-04-10T21:14:25.579Z,3.50
2023-04-10T21:16:44.386Z,3.23
2023-04-10T21:19:09.285Z,3.30
2023-04-10T21:21:21.701Z,3.50
2023-04-10T21:23:39.274Z,3.63
2023-04-10T21:25:54.626Z,3.50
2023-04-10T21:28:07.573Z,3.73
2023-04-10T21:30:22.247Z,4.03
2023-04-10T21:32:39.980Z,3.43
2023-04-10T21:34:55.692Z,3.40
2023-04-10T21:37:12.094Z,3.83
2023-04-10T21:39:29.556Z,3.40
2023-04-10T21:41:41.454Z,3.37
2023-04-10T21:43:52.243Z,3.60
2023-04-10T21:46:15.324Z,3.50
2023-04-10T21:48:32.139Z,3.73
2023-04-10T21:50:55.972Z,3.73
2023-04-10T21:53:12.317Z,3.57
2023-04-10T21:55:26.473Z,3.90
2023-04-10T21:57:42.552Z,4.00
2023-04-10T21:59:56.797Z,3.70
2023-04-10T22:02:15.572Z,3.83
2023-04-10T22:04:34.673Z,3.63
2023-04-10T22:06:56.149Z,3.67
2023-04-10T22:09:08.026Z,3.50
2023-04-10T22:11:22.764Z,3.60
2023-04-10T22:13:34.479Z,3.80
2023-04-10T22:15:46.811Z,3.27
2023-04-10T22:17:57.772Z,3.37
2023-04-10T22:20:15.067Z,3.53
2023-04-10T22:22:35.344Z,3.07
2023-04-10T22:24:52.082Z,3.10
2023-04-10T22:27:03.042Z,3.70
2023-04-10T22:29:16.819Z,3.33
2023-04-10T22:31:32.872Z,3.60
2023-04-10T22:33:50.777Z,3.90
2023-04-10T22:36:02.315Z,4.27
2023-04-10T22:38:14.978Z,3.67
2023-04-10T22:40:28.268Z,3.83
2023-04-10T22:42:37.471Z,4.10
2023-04-10T22:44:53.943Z,3.90
2023-04-10T22:47:03.311Z,4.23
2023-04-10T22:49:18.475Z,4.10
2023-04-10T22:51:34.570Z,3.80
2023-04-10T22:53:55.193Z,3.70
2023-04-10T22:56:10.719Z,3.70
2023-04-10T22:58:27.871Z,3.40
2023-04-10T23:00:47.884Z,3.57
2023-04-10T23:02:59.338Z,3.20
2023-04-10T23:05:13.323Z,3.40
2023-04-10T23:07:31.168Z,2.93
2023-04-10T23:09:59.426Z,3.50
2023-04-10T23:12:13.273Z,3.40
2023-04-10T23:14:23.691Z,3.47
2023-04-10T23:16:46.370Z,3.43
2023-04-10T23:19:03.238Z,3.20
2023-04-10T23:21:17.492Z,2.70
2023-04-10T23:23:34.106Z,2.93
2023-04-10T23:25:58.814Z,2.53
2023-04-10T23:28:19.686Z,3.73
2023-04-10T23:30:32.859Z,3.30
2023-04-10T23:32:44.540Z,3.40
2023-04-10T23:35:11.471Z,3.23
2023-04-10T23:37:27.830Z,3.00
2023-04-10T23:39:46.153Z,2.83
2023-04-10T23:42:14.004Z,3.40
2023-04-10T23:44:29.265Z,3.50
2023-04-10T23:46:42.315Z,3.13
2023-04-10T23:49:00.824Z,3.23
2023-04-10T23:51:14.643Z,3.57
2023-04-10T23:53:28.776Z,3.20
2023-04-10T23:55:47.813Z,2.90
2023-04-10T23:58:10.103Z,3.30
